Time;durP1;ratioP1;P1;durP2;ratioP2;P2;SDS_P1;SDS_P2;PMS_P1;PMS_P2;Temp;Humidity;BMP_temperature;BMP_pressure;BME280_temperature;BME280_humidity;BME280_pressure;Samples;Min_cycle;Max_cycle;Signal;HPM_P1;HPM_P2
2024/01/05 00:05:42;;;;;;;4.65;1.58;;;;;;;1.15;66.42;99356.56;32123265;27;41808;-67
2024/01/05 00:20:42;;;;;;;3.33;1.85;;;;;;;1.10;66.45;99371.84;32133924;27;20027;-67
2024/01/05 00:35:42;;;;;;;3.10;2.25;;;;;;;1.12;67.15;99404.88;32142822;27;41149;-68
2024/01/05 00:50:43;;;;;;;4.25;2.40;;;;;;;1.12;66.68;99398.78;32141464;27;43345;-67
2024/01/05 01:05:44;;;;;;;5.57;2.00;;;;;;;1.17;66.85;99407.91;32140344;27;41502;-67
2024/01/05 01:20:45;;;;;;;4.18;1.83;;;;;;;1.22;66.77;99411.94;32139090;27;20062;-67
2024/01/05 01:35:45;;;;;;;3.17;1.80;;;;;;;1.26;66.55;99406.31;32137170;27;20118;-67
2024/01/05 01:50:48;;;;;;;2.08;1.40;;;;;;;1.23;66.92;99411.00;32134974;27;41673;-67
2024/01/05 02:05:48;;;;;;;3.40;1.90;;;;;;;1.24;66.47;99418.72;32116517;27;20121;-67
2024/01/05 02:20:48;;;;;;;4.25;1.73;;;;;;;1.26;66.45;99440.44;32133664;27;20037;-67
2024/01/05 02:35:50;;;;;;;2.80;2.10;;;;;;;1.33;66.27;99407.47;32131824;27;20394;-67
2024/01/05 02:50:50;;;;;;;2.72;1.67;;;;;;;1.31;66.26;99422.53;32131600;27;20129;-67
2024/01/05 03:05:50;;;;;;;3.72;1.83;;;;;;;1.22;66.04;99414.56;32132448;27;42644;-67
2024/01/05 03:20:50;;;;;;;4.55;2.58;;;;;;;1.31;65.57;99419.91;32130703;27;41437;-67
2024/01/05 03:35:51;;;;;;;3.10;1.90;;;;;;;1.37;65.80;99407.19;32130840;27;20034;-67
2024/01/05 03:50:51;;;;;;;3.17;1.63;;;;;;;1.43;65.55;99409.31;32131218;27;20436;-67
2024/01/05 04:05:51;;;;;;;4.97;2.28;;;;;;;1.12;65.47;99414.50;32131268;27;20431;-67
2024/01/05 04:20:52;;;;;;;4.15;2.33;;;;;;;0.97;65.70;99417.47;32130031;27;20518;-67
2024/01/05 04:35:52;;;;;;;4.57;2.30;;;;;;;0.87;66.23;99434.91;32145346;27;41600;-67
2024/01/05 04:50:53;;;;;;;7.32;2.70;;;;;;;0.79;66.37;99446.06;32143453;27;20051;-66
2024/01/05 05:05:53;;;;;;;5.82;2.42;;;;;;;0.67;66.92;99437.38;32142349;27;20053;-66
2024/01/05 05:20:53;;;;;;;4.45;2.03;;;;;;;0.65;66.89;99434.03;32139838;27;20447;-66
2024/01/05 05:35:54;;;;;;;5.95;2.90;;;;;;;0.72;67.33;99417.81;32136258;27;20037;-68
2024/01/05 05:50:54;;;;;;;5.22;2.97;;;;;;;0.71;67.49;99416.16;32135061;27;37942;-69
2024/01/05 06:05:55;;;;;;;4.45;2.70;;;;;;;0.50;67.87;99417.78;32134052;27;42946;-67
2024/01/05 06:20:55;;;;;;;5.60;2.85;;;;;;;0.32;68.06;99401.75;32135734;27;20042;-67
2024/01/05 06:35:55;;;;;;;5.07;2.65;;;;;;;0.16;68.73;99394.31;32133588;27;41369;-67
2024/01/05 06:50:55;;;;;;;4.35;2.90;;;;;;;0.21;68.62;99388.72;32131088;27;20070;-68
2024/01/05 07:05:56;;;;;;;7.90;3.40;;;;;;;0.39;68.74;99375.06;32127325;27;40962;-67
2024/01/05 07:20:56;;;;;;;7.82;3.83;;;;;;;0.48;68.66;99379.56;32130069;27;41216;-67
2024/01/05 07:35:56;;;;;;;8.07;4.80;;;;;;;0.44;69.29;99380.78;32148155;27;20087;-67
2024/01/05 07:50:57;;;;;;;8.98;4.80;;;;;;;0.52;69.29;99377.50;32149060;27;40707;-67
2024/01/05 08:05:57;;;;;;;9.57;4.35;;;;;;;0.52;69.84;99385.38;32147052;27;41630;-67
2024/01/05 08:20:58;;;;;;;7.45;4.35;;;;;;;0.67;69.97;99382.34;32146440;27;20029;-68
2024/01/05 08:35:58;;;;;;;7.13;4.10;;;;;;;0.85;69.54;99397.50;32144144;27;20030;-67
2024/01/05 08:50:58;;;;;;;6.28;4.03;;;;;;;1.23;69.74;99390.84;32139959;27;27959;-66
2024/01/05 09:05:58;;;;;;;6.70;3.42;;;;;;;1.64;68.33;99378.59;32140178;27;42661;-66
2024/01/05 09:21:00;;;;;;;7.80;3.70;;;;;;;-147.20;100.00;63046.97;32163972;27;20055;-66
2024/01/05 09:36:00;;;;;;;7.70;5.28;;;;;;;-147.20;100.00;63046.97;32180502;27;20034;-66
2024/01/05 09:51:03;;;;;;;8.93;6.03;;;;;;;-147.20;100.00;63046.97;32179669;27;34645;-67
2024/01/05 10:06:04;;;;;;;8.15;4.40;;;;;;;-147.20;100.00;63046.97;32181872;27;20042;-66
2024/01/05 10:21:10;;;;;;;9.60;5.05;;;;;;;-147.20;100.00;63046.97;32179948;27;20031;-67
2024/01/05 10:36:10;;;;;;;7.07;4.57;;;;;;;-147.20;100.00;63046.97;32176988;27;20038;-65
2024/01/05 10:51:12;;;;;;;12.77;7.13;;;;;;;-147.20;100.00;63046.97;32173595;27;34401;-65
2024/01/05 11:06:12;;;;;;;10.65;7.20;;;;;;;-147.20;100.00;63046.97;32173978;27;20037;-66
2024/01/05 11:21:22;;;;;;;13.20;6.82;;;;;;;-147.20;100.00;63046.97;32172700;27;20490;-65
2024/01/05 11:36:48;;;;;;;10.07;6.28;;;;;;;-147.20;100.00;63046.97;32170677;27;20439;-66
2024/01/05 11:51:48;;;;;;;11.55;6.35;;;;;;;-147.20;100.00;63046.97;32171061;27;20047;-66
2024/01/05 12:06:52;;;;;;;15.80;6.88;;;;;;;-147.20;100.00;63046.97;32170528;27;35736;-66
2024/01/05 12:21:53;;;;;;;12.73;6.75;;;;;;;-147.20;100.00;63046.97;32187706;27;20031;-66
2024/01/05 12:37:04;;;;;;;13.98;7.13;;;;;;;-147.20;100.00;63046.97;32187427;27;21061;-65
2024/01/05 12:52:07;;;;;;;12.00;7.53;;;;;;;-147.20;100.00;63046.97;32188431;27;20171;-66
2024/01/05 13:07:12;;;;;;;;;;;;;;;-147.20;100.00;63046.97;32187028;27;20027;-66
2024/01/05 13:22:13;;;;;;;16.95;9.15;;;;;;;-147.20;100.00;63046.97;32185151;27;19926;-65
2024/01/05 13:37:14;;;;;;;15.93;9.07;;;;;;;-147.20;100.00;63046.97;32182566;27;20031;-66
2024/01/05 13:52:14;;;;;;;18.70;10.05;;;;;;;-147.20;100.00;63046.97;32181259;27;20045;-66
2024/01/05 14:07:15;;;;;;;16.35;8.95;;;;;;;-147.20;100.00;63046.97;32179842;27;31570;-67
2024/01/05 14:22:15;;;;;;;16.33;8.27;;;;;;;-147.20;100.00;63046.97;32177997;27;20039;-66
2024/01/05 14:37:15;;;;;;;15.80;8.57;;;;;;;-147.20;100.00;63046.97;32178560;27;20034;-66
2024/01/05 14:52:16;;;;;;;15.90;8.93;;;;;;;-147.20;100.00;63046.97;32174526;27;35986;-66
2024/01/05 15:07:16;;;;;;;19.55;10.25;;;;;;;-147.20;100.00;63046.97;32159493;27;20041;-69
2024/01/05 15:22:16;;;;;;;15.70;9.32;;;;;;;-147.20;100.00;63046.97;32177979;27;35890;-66
2024/01/05 15:37:17;;;;;;;17.38;9.13;;;;;;;-147.20;100.00;63046.97;32167499;27;34877;-66
2024/01/05 15:52:17;;;;;;;19.38;10.70;;;;;;;-147.20;100.00;63046.97;32179228;27;20057;-65
2024/01/05 16:07:17;;;;;;;20.30;10.35;;;;;;;-147.20;100.00;63046.97;32182800;27;34608;-65
2024/01/05 16:22:17;;;;;;;23.90;11.50;;;;;;;-147.20;100.00;63046.97;32179364;27;20041;-66
2024/01/05 16:37:18;;;;;;;21.33;9.82;;;;;;;-147.20;100.00;63046.97;32191384;27;20388;-65
2024/01/05 16:52:18;;;;;;;22.15;10.55;;;;;;;-147.20;100.00;63046.97;32187250;27;20051;-65
2024/01/05 17:07:18;;;;;;;19.58;9.82;;;;;;;-147.20;100.00;63046.97;32185775;27;33722;-65
2024/01/05 17:22:19;;;;;;;20.38;10.93;;;;;;;-147.20;100.00;63046.97;32178014;27;34763;-66
2024/01/05 17:37:19;;;;;;;18.10;10.60;;;;;;;-147.20;100.00;63046.97;32179627;27;20071;-66
2024/01/05 17:52:20;;;;;;;28.38;13.35;;;;;;;-147.20;100.00;63046.97;32176964;27;34519;-66
2024/01/05 18:07:20;;;;;;;21.83;12.00;;;;;;;-147.20;100.00;63046.97;32179326;27;20560;-66
2024/01/05 18:22:21;;;;;;;20.92;11.18;;;;;;;-147.20;100.00;63046.97;32176717;27;26557;-65
2024/01/05 18:37:21;;;;;;;21.45;11.20;;;;;;;-147.20;100.00;63046.97;32171912;27;20054;-65
2024/01/05 18:52:21;;;;;;;24.98;12.73;;;;;;;-147.20;100.00;63046.97;32171224;27;20053;-65
2024/01/05 19:07:23;;;;;;;27.17;13.05;;;;;;;-147.20;100.00;63046.97;32172959;27;20035;-65
2024/01/05 19:22:24;;;;;;;24.25;13.73;;;;;;;-147.20;100.00;63046.97;32173598;27;20517;-64
2024/01/05 19:37:25;;;;;;;35.17;16.23;;;;;;;-147.20;100.00;63046.97;32170871;27;20109;-65
2024/01/05 19:52:25;;;;;;;30.70;15.75;;;;;;;-147.20;100.00;63046.97;32173306;27;33684;-65
2024/01/05 20:07:26;;;;;;;29.67;15.15;;;;;;;-147.20;100.00;63046.97;32171657;27;36163;-66
2024/01/05 20:22:26;;;;;;;35.60;15.57;;;;;;;-147.20;100.00;63046.97;32169637;27;20113;-65
2024/01/05 20:37:27;;;;;;;32.83;15.57;;;;;;;-147.20;100.00;63046.97;32177782;27;20506;-66
2024/01/05 20:52:27;;;;;;;31.55;15.77;;;;;;;-147.20;100.00;63046.97;32187936;27;20139;-65
2024/01/05 21:07:28;;;;;;;28.70;14.25;;;;;;;-147.20;100.00;63046.97;32187473;27;20035;-66
2024/01/05 21:22:28;;;;;;;26.40;15.20;;;;;;;-147.20;100.00;63046.97;32184613;27;20029;-65
2024/01/05 21:37:28;;;;;;;36.30;17.05;;;;;;;-147.20;100.00;63046.97;32183143;27;34764;-65
2024/01/05 21:52:28;;;;;;;34.65;17.15;;;;;;;-147.20;100.00;63046.97;32182558;27;35417;-65
2024/01/05 22:07:29;;;;;;;29.15;17.17;;;;;;;-147.20;100.00;63046.97;32181998;27;34879;-65
2024/01/05 22:22:29;;;;;;;45.75;21.38;;;;;;;-147.20;100.00;63046.97;32181559;27;33431;-66
2024/01/05 22:37:30;;;;;;;38.25;18.10;;;;;;;-147.20;100.00;63046.97;32179513;27;20455;-65
2024/01/05 22:52:30;;;;;;;35.05;17.73;;;;;;;-147.20;100.00;63046.97;32177952;27;20260;-65
2024/01/05 23:07:30;;;;;;;44.75;20.95;;;;;;;-147.20;100.00;63046.97;32176609;27;35882;-65
2024/01/05 23:22:31;;;;;;;46.70;20.90;;;;;;;-147.20;100.00;63046.97;32176722;27;20111;-65
2024/01/05 23:37:31;;;;;;;46.78;20.50;;;;;;;-147.20;100.00;63046.97;32175861;27;20493;-67
2024/01/05 23:52:32;;;;;;;45.42;21.92;;;;;;;-147.20;100.00;63046.97;32173613;27;36063;-66
